sensor_id;sensor_type;location;lat;lon;timestamp;P1;durP1;ratioP1;P2;durP2;ratioP2
56297;SDS011;42208;6.376;-10.782;2023-06-26T00:00:00;24.30;;;7.97;;
56297;SDS011;42208;6.376;-10.782;2023-06-26T00:02:31;16.25;;;6.10;;
56297;SDS011;42208;6.376;-10.782;2023-06-26T00:05:00;18.75;;;4.43;;
56297;SDS011;42208;6.376;-10.782;2023-06-26T00:07:29;27.17;;;5.82;;
56297;SDS011;42208;6.376;-10.782;2023-06-26T00:09:58;19.08;;;6.18;;
56297;SDS011;42208;6.376;-10.782;2023-06-26T00:12:26;29.05;;;8.88;;
56297;SDS011;42208;6.376;-10.782;2023-06-26T00:14:55;20.45;;;8.30;;
56297;SDS011;42208;6.376;-10.782;2023-06-26T00:17:23;31.20;;;6.60;;
56297;SDS011;42208;6.376;-10.782;2023-06-26T00:19:52;28.77;;;6.15;;
56297;SDS011;42208;6.376;-10.782;2023-06-26T00:22:21;23.33;;;5.35;;
56297;SDS011;42208;6.376;-10.782;2023-06-26T00:24:49;22.73;;;5.85;;
56297;SDS011;42208;6.376;-10.782;2023-06-26T00:27:18;18.65;;;5.60;;
56297;SDS011;42208;6.376;-10.782;2023-06-26T00:29:46;29.85;;;5.95;;
56297;SDS011;42208;6.376;-10.782;2023-06-26T00:32:16;23.92;;;6.13;;
56297;SDS011;42208;6.376;-10.782;2023-06-26T00:34:44;22.20;;;5.85;;
56297;SDS011;42208;6.376;-10.782;2023-06-26T00:37:14;31.02;;;6.82;;
56297;SDS011;42208;6.376;-10.782;2023-06-26T00:39:43;22.98;;;6.40;;
56297;SDS011;42208;6.376;-10.782;2023-06-26T00:42:11;25.15;;;5.80;;
56297;SDS011;42208;6.376;-10.782;2023-06-26T00:44:40;21.75;;;5.50;;
56297;SDS011;42208;6.376;-10.782;2023-06-26T00:47:09;19.50;;;5.35;;
56297;SDS011;42208;6.376;-10.782;2023-06-26T00:49:41;24.95;;;6.30;;
56297;SDS011;42208;6.376;-10.782;2023-06-26T00:52:10;30.35;;;6.45;;
56297;SDS011;42208;6.376;-10.782;2023-06-26T00:54:38;32.63;;;6.95;;
56297;SDS011;42208;6.376;-10.782;2023-06-26T00:57:08;25.55;;;6.38;;
56297;SDS011;42208;6.376;-10.782;2023-06-26T00:59:37;35.72;;;7.88;;
56297;SDS011;42208;6.376;-10.782;2023-06-26T01:02:06;22.65;;;7.07;;
56297;SDS011;42208;6.376;-10.782;2023-06-26T01:04:35;19.13;;;6.38;;
56297;SDS011;42208;6.376;-10.782;2023-06-26T01:07:05;19.77;;;6.35;;
56297;SDS011;42208;6.376;-10.782;2023-06-26T01:09:34;21.08;;;6.35;;
56297;SDS011;42208;6.376;-10.782;2023-06-26T01:12:02;20.75;;;6.00;;
56297;SDS011;42208;6.376;-10.782;2023-06-26T01:14:31;26.23;;;6.50;;
56297;SDS011;42208;6.376;-10.782;2023-06-26T01:17:02;17.98;;;6.32;;
56297;SDS011;42208;6.376;-10.782;2023-06-26T01:19:31;22.00;;;6.22;;
56297;SDS011;42208;6.376;-10.782;2023-06-26T01:22:47;18.10;;;5.97;;
56297;SDS011;42208;6.376;-10.782;2023-06-26T01:27:50;20.38;;;6.40;;
56297;SDS011;42208;6.376;-10.782;2023-06-26T01:30:22;22.73;;;6.53;;
56297;SDS011;42208;6.376;-10.782;2023-06-26T01:32:52;26.98;;;6.82;;
56297;SDS011;42208;6.376;-10.782;2023-06-26T01:35:21;18.95;;;6.05;;
56297;SDS011;42208;6.376;-10.782;2023-06-26T01:37:50;17.65;;;5.18;;
56297;SDS011;42208;6.376;-10.782;2023-06-26T01:40:18;25.65;;;5.82;;
56297;SDS011;42208;6.376;-10.782;2023-06-26T01:42:46;22.33;;;4.22;;
56297;SDS011;42208;6.376;-10.782;2023-06-26T01:45:24;17.80;;;5.45;;
56297;SDS011;42208;6.376;-10.782;2023-06-26T01:47:55;26.35;;;5.00;;
56297;SDS011;42208;6.376;-10.782;2023-06-26T01:50:28;20.58;;;4.30;;
56297;SDS011;42208;6.376;-10.782;2023-06-26T01:53:18;28.45;;;6.18;;
56297;SDS011;42208;6.376;-10.782;2023-06-26T01:55:53;14.73;;;4.35;;
56297;SDS011;42208;6.376;-10.782;2023-06-26T01:58:26;18.48;;;4.82;;
56297;SDS011;42208;6.376;-10.782;2023-06-26T02:00:56;14.55;;;4.18;;
56297;SDS011;42208;6.376;-10.782;2023-06-26T02:03:24;17.50;;;4.60;;
56297;SDS011;42208;6.376;-10.782;2023-06-26T02:05:53;24.13;;;5.10;;
56297;SDS011;42208;6.376;-10.782;2023-06-26T02:08:21;18.52;;;4.28;;
56297;SDS011;42208;6.376;-10.782;2023-06-26T02:10:50;20.65;;;4.90;;
56297;SDS011;42208;6.376;-10.782;2023-06-26T02:13:18;18.45;;;4.07;;
56297;SDS011;42208;6.376;-10.782;2023-06-26T02:15:46;16.88;;;4.57;;
56297;SDS011;42208;6.376;-10.782;2023-06-26T02:18:15;14.68;;;4.20;;
56297;SDS011;42208;6.376;-10.782;2023-06-26T02:20:43;18.83;;;4.85;;
56297;SDS011;42208;6.376;-10.782;2023-06-26T02:23:12;16.48;;;4.75;;
56297;SDS011;42208;6.376;-10.782;2023-06-26T02:25:40;19.55;;;5.18;;
56297;SDS011;42208;6.376;-10.782;2023-06-26T02:28:09;17.73;;;4.53;;
56297;SDS011;42208;6.376;-10.782;2023-06-26T02:30:37;18.85;;;4.20;;
56297;SDS011;42208;6.376;-10.782;2023-06-26T02:33:06;17.92;;;4.18;;
56297;SDS011;42208;6.376;-10.782;2023-06-26T02:35:35;15.57;;;4.10;;
56297;SDS011;42208;6.376;-10.782;2023-06-26T02:38:03;22.10;;;5.18;;
56297;SDS011;42208;6.376;-10.782;2023-06-26T02:40:32;19.95;;;5.55;;
56297;SDS011;42208;6.376;-10.782;2023-06-26T02:43:01;21.27;;;4.75;;
56297;SDS011;42208;6.376;-10.782;2023-06-26T02:45:31;15.98;;;4.05;;
56297;SDS011;42208;6.376;-10.782;2023-06-26T02:47:59;14.02;;;4.28;;
56297;SDS011;42208;6.376;-10.782;2023-06-26T02:50:31;16.48;;;4.18;;
56297;SDS011;42208;6.376;-10.782;2023-06-26T02:53:08;13.15;;;3.60;;
56297;SDS011;42208;6.376;-10.782;2023-06-26T02:55:40;13.87;;;3.50;;
56297;SDS011;42208;6.376;-10.782;2023-06-26T02:58:09;13.68;;;3.53;;
56297;SDS011;42208;6.376;-10.782;2023-06-26T03:00:38;9.70;;;3.10;;
56297;SDS011;42208;6.376;-10.782;2023-06-26T03:03:09;11.95;;;3.00;;
56297;SDS011;42208;6.376;-10.782;2023-06-26T03:05:38;13.50;;;3.28;;
56297;SDS011;42208;6.376;-10.782;2023-06-26T03:08:07;11.70;;;3.47;;
56297;SDS011;42208;6.376;-10.782;2023-06-26T03:10:35;14.52;;;3.40;;
56297;SDS011;42208;6.376;-10.782;2023-06-26T03:13:04;12.00;;;3.65;;
56297;SDS011;42208;6.376;-10.782;2023-06-26T03:15:33;16.98;;;4.18;;
56297;SDS011;42208;6.376;-10.782;2023-06-26T03:18:02;22.13;;;5.28;;
56297;SDS011;42208;6.376;-10.782;2023-06-26T03:20:30;15.65;;;5.13;;
56297;SDS011;42208;6.376;-10.782;2023-06-26T03:22:59;19.23;;;6.03;;
56297;SDS011;42208;6.376;-10.782;2023-06-26T03:25:28;20.40;;;6.18;;
56297;SDS011;42208;6.376;-10.782;2023-06-26T03:28:19;13.40;;;5.72;;
56297;SDS011;42208;6.376;-10.782;2023-06-26T03:30:47;13.75;;;4.88;;
56297;SDS011;42208;6.376;-10.782;2023-06-26T03:33:17;15.90;;;4.35;;
56297;SDS011;42208;6.376;-10.782;2023-06-26T03:35:45;16.00;;;4.40;;
56297;SDS011;42208;6.376;-10.782;2023-06-26T03:38:14;17.17;;;4.40;;
56297;SDS011;42208;6.376;-10.782;2023-06-26T03:40:44;19.02;;;4.82;;
56297;SDS011;42208;6.376;-10.782;2023-06-26T03:43:13;16.30;;;4.40;;
56297;SDS011;42208;6.376;-10.782;2023-06-26T03:46:01;14.15;;;4.43;;
56297;SDS011;42208;6.376;-10.782;2023-06-26T03:48:30;16.65;;;4.60;;
56297;SDS011;42208;6.376;-10.782;2023-06-26T03:50:59;19.67;;;4.20;;
56297;SDS011;42208;6.376;-10.782;2023-06-26T03:53:27;14.55;;;4.30;;
56297;SDS011;42208;6.376;-10.782;2023-06-26T03:55:56;16.10;;;5.00;;
56297;SDS011;42208;6.376;-10.782;2023-06-26T03:58:24;11.45;;;4.10;;
56297;SDS011;42208;6.376;-10.782;2023-06-26T04:00:53;11.65;;;3.60;;
56297;SDS011;42208;6.376;-10.782;2023-06-26T04:03:22;13.05;;;4.20;;
56297;SDS011;42208;6.376;-10.782;2023-06-26T04:05:51;12.27;;;3.83;;
56297;SDS011;42208;6.376;-10.782;2023-06-26T04:08:19;17.63;;;4.28;;
56297;SDS011;42208;6.376;-10.782;2023-06-26T04:10:48;16.55;;;4.30;;
56297;SDS011;42208;6.376;-10.782;2023-06-26T04:13:16;14.30;;;3.88;;
56297;SDS011;42208;6.376;-10.782;2023-06-26T04:15:44;14.40;;;3.85;;
56297;SDS011;42208;6.376;-10.782;2023-06-26T04:18:13;13.32;;;4.07;;
56297;SDS011;42208;6.376;-10.782;2023-06-26T04:20:42;9.13;;;3.40;;
56297;SDS011;42208;6.376;-10.782;2023-06-26T04:23:32;12.00;;;4.00;;
56297;SDS011;42208;6.376;-10.782;2023-06-26T04:26:01;16.38;;;4.68;;
56297;SDS011;42208;6.376;-10.782;2023-06-26T04:28:30;11.48;;;3.70;;
56297;SDS011;42208;6.376;-10.782;2023-06-26T04:30:59;10.75;;;3.35;;
56297;SDS011;42208;6.376;-10.782;2023-06-26T04:33:29;12.32;;;3.92;;
56297;SDS011;42208;6.376;-10.782;2023-06-26T04:35:57;12.80;;;5.45;;
56297;SDS011;42208;6.376;-10.782;2023-06-26T04:38:26;18.15;;;8.00;;
56297;SDS011;42208;6.376;-10.782;2023-06-26T04:40:54;17.90;;;6.45;;
56297;SDS011;42208;6.376;-10.782;2023-06-26T04:43:23;16.58;;;5.40;;
56297;SDS011;42208;6.376;-10.782;2023-06-26T04:45:51;15.13;;;5.45;;
56297;SDS011;42208;6.376;-10.782;2023-06-26T04:48:20;14.55;;;5.05;;
56297;SDS011;42208;6.376;-10.782;2023-06-26T04:50:48;11.98;;;4.70;;
56297;SDS011;42208;6.376;-10.782;2023-06-26T04:53:17;9.55;;;4.13;;
56297;SDS011;42208;6.376;-10.782;2023-06-26T04:55:45;11.63;;;4.32;;
56297;SDS011;42208;6.376;-10.782;2023-06-26T04:58:14;17.00;;;4.95;;
56297;SDS011;42208;6.376;-10.782;2023-06-26T05:00:42;10.75;;;4.15;;
56297;SDS011;42208;6.376;-10.782;2023-06-26T05:03:11;12.93;;;4.30;;
56297;SDS011;42208;6.376;-10.782;2023-06-26T05:05:41;11.35;;;4.32;;
56297;SDS011;42208;6.376;-10.782;2023-06-26T05:08:22;13.55;;;4.13;;
56297;SDS011;42208;6.376;-10.782;2023-06-26T05:10:52;18.25;;;4.82;;
56297;SDS011;42208;6.376;-10.782;2023-06-26T05:13:20;16.35;;;5.47;;
56297;SDS011;42208;6.376;-10.782;2023-06-26T05:15:49;18.08;;;5.10;;
56297;SDS011;42208;6.376;-10.782;2023-06-26T05:18:17;13.52;;;4.93;;
56297;SDS011;42208;6.376;-10.782;2023-06-26T05:20:46;11.80;;;4.25;;
56297;SDS011;42208;6.376;-10.782;2023-06-26T05:23:15;15.98;;;4.45;;
56297;SDS011;42208;6.376;-10.782;2023-06-26T05:25:44;13.48;;;4.90;;
56297;SDS011;42208;6.376;-10.782;2023-06-26T05:28:13;12.70;;;3.83;;
56297;SDS011;42208;6.376;-10.782;2023-06-26T05:30:42;12.68;;;3.97;;
56297;SDS011;42208;6.376;-10.782;2023-06-26T05:33:11;13.13;;;4.55;;
56297;SDS011;42208;6.376;-10.782;2023-06-26T05:35:40;15.65;;;4.75;;
56297;SDS011;42208;6.376;-10.782;2023-06-26T05:38:10;13.02;;;4.75;;
56297;SDS011;42208;6.376;-10.782;2023-06-26T05:40:40;23.63;;;8.55;;
56297;SDS011;42208;6.376;-10.782;2023-06-26T05:43:09;20.05;;;7.22;;
56297;SDS011;42208;6.376;-10.782;2023-06-26T05:45:38;18.88;;;6.70;;
56297;SDS011;42208;6.376;-10.782;2023-06-26T05:48:07;18.10;;;5.97;;
56297;SDS011;42208;6.376;-10.782;2023-06-26T05:50:36;19.50;;;8.07;;
56297;SDS011;42208;6.376;-10.782;2023-06-26T05:53:05;25.10;;;12.63;;
56297;SDS011;42208;6.376;-10.782;2023-06-26T05:55:34;29.23;;;15.02;;
56297;SDS011;42208;6.376;-10.782;2023-06-26T05:58:03;26.30;;;14.48;;
56297;SDS011;42208;6.376;-10.782;2023-06-26T06:00:32;20.38;;;11.50;;
56297;SDS011;42208;6.376;-10.782;2023-06-26T06:03:01;17.00;;;8.63;;
56297;SDS011;42208;6.376;-10.782;2023-06-26T06:05:30;20.08;;;6.93;;
56297;SDS011;42208;6.376;-10.782;2023-06-26T06:07:58;19.63;;;8.10;;
56297;SDS011;42208;6.376;-10.782;2023-06-26T06:10:27;16.70;;;7.68;;
56297;SDS011;42208;6.376;-10.782;2023-06-26T06:12:55;17.13;;;7.50;;
56297;SDS011;42208;6.376;-10.782;2023-06-26T06:15:24;19.52;;;7.82;;
56297;SDS011;42208;6.376;-10.782;2023-06-26T06:17:54;20.70;;;7.53;;
56297;SDS011;42208;6.376;-10.782;2023-06-26T06:20:23;14.13;;;6.90;;
56297;SDS011;42208;6.376;-10.782;2023-06-26T06:22:52;20.50;;;5.95;;
56297;SDS011;42208;6.376;-10.782;2023-06-26T06:25:20;16.67;;;6.75;;
56297;SDS011;42208;6.376;-10.782;2023-06-26T06:27:49;13.73;;;6.78;;
56297;SDS011;42208;6.376;-10.782;2023-06-26T06:30:17;19.75;;;7.35;;
56297;SDS011;42208;6.376;-10.782;2023-06-26T06:33:01;19.75;;;7.97;;
56297;SDS011;42208;6.376;-10.782;2023-06-26T06:35:29;19.75;;;7.53;;
56297;SDS011;42208;6.376;-10.782;2023-06-26T06:37:58;18.38;;;7.95;;
56297;SDS011;42208;6.376;-10.782;2023-06-26T06:40:27;18.35;;;8.10;;
56297;SDS011;42208;6.376;-10.782;2023-06-26T06:42:55;20.42;;;9.00;;
56297;SDS011;42208;6.376;-10.782;2023-06-26T06:45:24;19.17;;;9.85;;
56297;SDS011;42208;6.376;-10.782;2023-06-26T06:47:52;20.77;;;11.18;;
56297;SDS011;42208;6.376;-10.782;2023-06-26T06:50:21;26.77;;;13.13;;
56297;SDS011;42208;6.376;-10.782;2023-06-26T06:52:49;25.70;;;13.85;;
56297;SDS011;42208;6.376;-10.782;2023-06-26T06:55:17;24.65;;;13.13;;
56297;SDS011;42208;6.376;-10.782;2023-06-26T06:57:49;24.92;;;12.13;;
56297;SDS011;42208;6.376;-10.782;2023-06-26T07:00:18;23.00;;;11.52;;
56297;SDS011;42208;6.376;-10.782;2023-06-26T07:02:47;21.67;;;10.90;;
56297;SDS011;42208;6.376;-10.782;2023-06-26T07:05:15;19.85;;;10.93;;
56297;SDS011;42208;6.376;-10.782;2023-06-26T07:07:44;21.15;;;9.93;;
56297;SDS011;42208;6.376;-10.782;2023-06-26T07:10:13;24.30;;;10.98;;
56297;SDS011;42208;6.376;-10.782;2023-06-26T07:12:42;25.83;;;9.65;;
56297;SDS011;42208;6.376;-10.782;2023-06-26T07:15:10;21.30;;;9.57;;
56297;SDS011;42208;6.376;-10.782;2023-06-26T07:17:39;30.00;;;8.90;;
56297;SDS011;42208;6.376;-10.782;2023-06-26T07:20:07;15.30;;;7.80;;
56297;SDS011;42208;6.376;-10.782;2023-06-26T07:22:36;23.33;;;9.52;;
56297;SDS011;42208;6.376;-10.782;2023-06-26T07:25:05;30.63;;;10.50;;
56297;SDS011;42208;6.376;-10.782;2023-06-26T07:27:34;26.75;;;11.43;;
56297;SDS011;42208;6.376;-10.782;2023-06-26T07:30:03;22.88;;;11.55;;
56297;SDS011;42208;6.376;-10.782;2023-06-26T07:32:32;33.97;;;11.80;;
56297;SDS011;42208;6.376;-10.782;2023-06-26T07:35:01;29.55;;;11.13;;
56297;SDS011;42208;6.376;-10.782;2023-06-26T07:37:29;25.05;;;10.75;;
56297;SDS011;42208;6.376;-10.782;2023-06-26T07:39:58;26.13;;;11.20;;
56297;SDS011;42208;6.376;-10.782;2023-06-26T07:42:26;29.98;;;12.85;;
56297;SDS011;42208;6.376;-10.782;2023-06-26T07:44:55;32.08;;;12.77;;
56297;SDS011;42208;6.376;-10.782;2023-06-26T07:47:23;33.60;;;11.80;;
56297;SDS011;42208;6.376;-10.782;2023-06-26T07:49:52;33.72;;;8.57;;
56297;SDS011;42208;6.376;-10.782;2023-06-26T07:52:20;29.48;;;7.75;;
56297;SDS011;42208;6.376;-10.782;2023-06-26T07:54:48;26.90;;;6.97;;
56297;SDS011;42208;6.376;-10.782;2023-06-26T07:57:17;24.45;;;8.38;;
56297;SDS011;42208;6.376;-10.782;2023-06-26T07:59:45;24.85;;;6.80;;
56297;SDS011;42208;6.376;-10.782;2023-06-26T08:02:14;29.60;;;7.50;;
56297;SDS011;42208;6.376;-10.782;2023-06-26T08:04:43;25.55;;;6.88;;
56297;SDS011;42208;6.376;-10.782;2023-06-26T08:07:12;26.20;;;7.38;;
56297;SDS011;42208;6.376;-10.782;2023-06-26T08:09:41;26.58;;;6.82;;
56297;SDS011;42208;6.376;-10.782;2023-06-26T08:12:09;28.15;;;6.32;;
56297;SDS011;42208;6.376;-10.782;2023-06-26T08:14:39;20.63;;;6.03;;
56297;SDS011;42208;6.376;-10.782;2023-06-26T08:17:08;26.13;;;6.18;;
56297;SDS011;42208;6.376;-10.782;2023-06-26T08:19:36;19.33;;;5.95;;
56297;SDS011;42208;6.376;-10.782;2023-06-26T08:22:05;22.65;;;6.32;;
56297;SDS011;42208;6.376;-10.782;2023-06-26T08:24:33;23.27;;;7.22;;
56297;SDS011;42208;6.376;-10.782;2023-06-26T08:27:02;27.30;;;8.25;;
56297;SDS011;42208;6.376;-10.782;2023-06-26T08:29:31;25.73;;;7.13;;
56297;SDS011;42208;6.376;-10.782;2023-06-26T08:31:59;33.53;;;8.15;;
56297;SDS011;42208;6.376;-10.782;2023-06-26T08:34:28;26.73;;;9.45;;
56297;SDS011;42208;6.376;-10.782;2023-06-26T08:36:56;28.73;;;11.20;;
56297;SDS011;42208;6.376;-10.782;2023-06-26T08:39:26;29.85;;;11.32;;
56297;SDS011;42208;6.376;-10.782;2023-06-26T08:41:55;25.60;;;7.90;;
56297;SDS011;42208;6.376;-10.782;2023-06-26T08:44:23;25.38;;;8.00;;
56297;SDS011;42208;6.376;-10.782;2023-06-26T08:46:53;23.95;;;7.38;;
56297;SDS011;42208;6.376;-10.782;2023-06-26T08:52:02;19.70;;;5.97;;
56297;SDS011;42208;6.376;-10.782;2023-06-26T08:54:40;18.95;;;6.07;;
56297;SDS011;42208;6.376;-10.782;2023-06-26T08:57:14;20.60;;;5.60;;
56297;SDS011;42208;6.376;-10.782;2023-06-26T08:59:46;15.23;;;4.30;;
56297;SDS011;42208;6.376;-10.782;2023-06-26T09:02:15;20.88;;;3.97;;
56297;SDS011;42208;6.376;-10.782;2023-06-26T09:04:44;19.88;;;4.72;;
56297;SDS011;42208;6.376;-10.782;2023-06-26T09:07:12;25.15;;;6.47;;
56297;SDS011;42208;6.376;-10.782;2023-06-26T09:09:43;20.40;;;6.10;;
56297;SDS011;42208;6.376;-10.782;2023-06-26T09:12:12;16.40;;;5.22;;
56297;SDS011;42208;6.376;-10.782;2023-06-26T09:14:41;20.70;;;5.32;;
56297;SDS011;42208;6.376;-10.782;2023-06-26T09:17:10;12.70;;;4.88;;
56297;SDS011;42208;6.376;-10.782;2023-06-26T09:19:47;21.00;;;6.35;;
56297;SDS011;42208;6.376;-10.782;2023-06-26T09:22:16;21.45;;;6.10;;
56297;SDS011;42208;6.376;-10.782;2023-06-26T09:24:45;28.35;;;7.82;;
56297;SDS011;42208;6.376;-10.782;2023-06-26T09:27:16;38.45;;;6.22;;
56297;SDS011;42208;6.376;-10.782;2023-06-26T09:29:48;22.25;;;5.40;;
56297;SDS011;42208;6.376;-10.782;2023-06-26T09:32:18;25.73;;;5.88;;
56297;SDS011;42208;6.376;-10.782;2023-06-26T09:34:47;34.00;;;5.93;;
56297;SDS011;42208;6.376;-10.782;2023-06-26T09:37:15;22.15;;;6.32;;
56297;SDS011;42208;6.376;-10.782;2023-06-26T09:39:44;27.27;;;6.97;;
56297;SDS011;42208;6.376;-10.782;2023-06-26T09:42:20;23.95;;;5.32;;
56297;SDS011;42208;6.376;-10.782;2023-06-26T09:44:51;24.50;;;6.25;;
56297;SDS011;42208;6.376;-10.782;2023-06-26T09:47:19;24.25;;;6.72;;
56297;SDS011;42208;6.376;-10.782;2023-06-26T09:49:51;24.92;;;7.03;;
56297;SDS011;42208;6.376;-10.782;2023-06-26T09:52:19;34.80;;;8.68;;
56297;SDS011;42208;6.376;-10.782;2023-06-26T09:54:48;28.05;;;9.45;;
56297;SDS011;42208;6.376;-10.782;2023-06-26T09:57:17;32.42;;;7.63;;
56297;SDS011;42208;6.376;-10.782;2023-06-26T09:59:46;31.27;;;7.85;;
56297;SDS011;42208;6.376;-10.782;2023-06-26T10:02:16;28.50;;;7.32;;
56297;SDS011;42208;6.376;-10.782;2023-06-26T10:04:45;26.52;;;7.40;;
56297;SDS011;42208;6.376;-10.782;2023-06-26T10:07:13;26.50;;;6.95;;
56297;SDS011;42208;6.376;-10.782;2023-06-26T10:09:43;25.50;;;6.60;;
56297;SDS011;42208;6.376;-10.782;2023-06-26T10:12:24;20.27;;;5.88;;
56297;SDS011;42208;6.376;-10.782;2023-06-26T10:14:55;28.25;;;7.18;;
56297;SDS011;42208;6.376;-10.782;2023-06-26T10:17:27;32.33;;;8.07;;
56297;SDS011;42208;6.376;-10.782;2023-06-26T10:19:58;22.15;;;6.38;;
56297;SDS011;42208;6.376;-10.782;2023-06-26T10:22:37;16.08;;;5.53;;
56297;SDS011;42208;6.376;-10.782;2023-06-26T10:25:12;11.93;;;4.97;;
56297;SDS011;42208;6.376;-10.782;2023-06-26T10:27:53;16.40;;;5.78;;
56297;SDS011;42208;6.376;-10.782;2023-06-26T10:30:25;13.02;;;5.93;;
56297;SDS011;42208;6.376;-10.782;2023-06-26T10:32:57;15.75;;;4.93;;
56297;SDS011;42208;6.376;-10.782;2023-06-26T10:35:27;16.67;;;5.57;;
56297;SDS011;42208;6.376;-10.782;2023-06-26T10:38:02;15.82;;;5.18;;
56297;SDS011;42208;6.376;-10.782;2023-06-26T10:43:13;21.33;;;8.10;;
56297;SDS011;42208;6.376;-10.782;2023-06-26T10:45:46;22.95;;;7.75;;
56297;SDS011;42208;6.376;-10.782;2023-06-26T10:48:16;22.15;;;7.60;;
56297;SDS011;42208;6.376;-10.782;2023-06-26T10:50:47;24.05;;;8.65;;
56297;SDS011;42208;6.376;-10.782;2023-06-26T10:53:21;24.73;;;8.68;;
56297;SDS011;42208;6.376;-10.782;2023-06-26T10:55:55;23.25;;;7.95;;
56297;SDS011;42208;6.376;-10.782;2023-06-26T10:58:31;33.05;;;9.15;;
56297;SDS011;42208;6.376;-10.782;2023-06-26T11:04:05;24.15;;;7.50;;
56297;SDS011;42208;6.376;-10.782;2023-06-26T11:06:35;24.40;;;5.97;;
56297;SDS011;42208;6.376;-10.782;2023-06-26T11:14:20;19.63;;;4.38;;
56297;SDS011;42208;6.376;-10.782;2023-06-26T11:16:49;21.20;;;4.57;;
56297;SDS011;42208;6.376;-10.782;2023-06-26T11:19:18;16.15;;;4.85;;
56297;SDS011;42208;6.376;-10.782;2023-06-26T11:21:47;18.55;;;4.32;;
56297;SDS011;42208;6.376;-10.782;2023-06-26T11:24:16;23.25;;;5.30;;
56297;SDS011;42208;6.376;-10.782;2023-06-26T11:26:44;20.05;;;7.70;;
56297;SDS011;42208;6.376;-10.782;2023-06-26T11:29:13;15.98;;;5.25;;
56297;SDS011;42208;6.376;-10.782;2023-06-26T11:31:41;22.33;;;3.90;;
56297;SDS011;42208;6.376;-10.782;2023-06-26T11:34:11;13.93;;;3.47;;
56297;SDS011;42208;6.376;-10.782;2023-06-26T11:36:41;23.50;;;5.43;;
56297;SDS011;42208;6.376;-10.782;2023-06-26T11:39:10;15.90;;;4.35;;
56297;SDS011;42208;6.376;-10.782;2023-06-26T11:41:39;17.83;;;4.25;;
56297;SDS011;42208;6.376;-10.782;2023-06-26T11:44:08;19.33;;;5.35;;
56297;SDS011;42208;6.376;-10.782;2023-06-26T11:46:38;25.98;;;4.93;;
56297;SDS011;42208;6.376;-10.782;2023-06-26T11:49:08;22.48;;;4.45;;
56297;SDS011;42208;6.376;-10.782;2023-06-26T11:51:36;21.98;;;6.95;;
56297;SDS011;42208;6.376;-10.782;2023-06-26T11:54:05;16.52;;;4.20;;
56297;SDS011;42208;6.376;-10.782;2023-06-26T11:56:34;15.90;;;4.55;;
56297;SDS011;42208;6.376;-10.782;2023-06-26T11:59:06;19.35;;;5.10;;
56297;SDS011;42208;6.376;-10.782;2023-06-26T12:01:41;27.65;;;8.68;;
56297;SDS011;42208;6.376;-10.782;2023-06-26T12:04:11;25.73;;;7.40;;
56297;SDS011;42208;6.376;-10.782;2023-06-26T12:06:45;20.95;;;6.32;;
56297;SDS011;42208;6.376;-10.782;2023-06-26T12:09:15;24.38;;;7.90;;
56297;SDS011;42208;6.376;-10.782;2023-06-26T12:11:47;18.65;;;6.75;;
56297;SDS011;42208;6.376;-10.782;2023-06-26T12:14:19;26.88;;;10.60;;
56297;SDS011;42208;6.376;-10.782;2023-06-26T12:16:49;18.45;;;5.60;;
56297;SDS011;42208;6.376;-10.782;2023-06-26T12:19:24;22.20;;;5.97;;
56297;SDS011;42208;6.376;-10.782;2023-06-26T12:21:56;15.45;;;4.22;;
56297;SDS011;42208;6.376;-10.782;2023-06-26T12:24:24;21.10;;;8.23;;
56297;SDS011;42208;6.376;-10.782;2023-06-26T12:26:54;33.40;;;11.45;;
56297;SDS011;42208;6.376;-10.782;2023-06-26T12:29:31;26.60;;;8.32;;
56297;SDS011;42208;6.376;-10.782;2023-06-26T12:32:03;30.95;;;8.00;;
56297;SDS011;42208;6.376;-10.782;2023-06-26T12:34:32;22.08;;;5.90;;
56297;SDS011;42208;6.376;-10.782;2023-06-26T12:37:06;35.70;;;7.45;;
56297;SDS011;42208;6.376;-10.782;2023-06-26T12:39:52;23.77;;;5.75;;
56297;SDS011;42208;6.376;-10.782;2023-06-26T12:42:22;26.17;;;7.85;;
56297;SDS011;42208;6.376;-10.782;2023-06-26T12:44:52;23.52;;;6.85;;
56297;SDS011;42208;6.376;-10.782;2023-06-26T12:47:30;26.17;;;6.13;;
56297;SDS011;42208;6.376;-10.782;2023-06-26T12:49:58;21.00;;;5.70;;
56297;SDS011;42208;6.376;-10.782;2023-06-26T12:52:32;23.88;;;7.00;;
56297;SDS011;42208;6.376;-10.782;2023-06-26T12:55:00;21.45;;;5.97;;
56297;SDS011;42208;6.376;-10.782;2023-06-26T12:57:28;31.65;;;6.63;;
56297;SDS011;42208;6.376;-10.782;2023-06-26T13:00:00;26.42;;;6.60;;
56297;SDS011;42208;6.376;-10.782;2023-06-26T13:02:29;27.90;;;6.13;;
56297;SDS011;42208;6.376;-10.782;2023-06-26T13:04:58;28.88;;;9.05;;
56297;SDS011;42208;6.376;-10.782;2023-06-26T13:07:27;25.42;;;6.25;;
56297;SDS011;42208;6.376;-10.782;2023-06-26T13:09:55;38.58;;;12.50;;
56297;SDS011;42208;6.376;-10.782;2023-06-26T13:12:27;23.90;;;6.60;;
56297;SDS011;42208;6.376;-10.782;2023-06-26T13:14:56;33.53;;;8.98;;
56297;SDS011;42208;6.376;-10.782;2023-06-26T13:17:25;29.60;;;8.07;;
56297;SDS011;42208;6.376;-10.782;2023-06-26T13:19:55;22.73;;;6.45;;
56297;SDS011;42208;6.376;-10.782;2023-06-26T13:22:23;22.70;;;6.45;;
56297;SDS011;42208;6.376;-10.782;2023-06-26T13:24:52;29.80;;;7.63;;
56297;SDS011;42208;6.376;-10.782;2023-06-26T13:27:20;25.50;;;6.72;;
56297;SDS011;42208;6.376;-10.782;2023-06-26T13:29:49;25.58;;;6.53;;
56297;SDS011;42208;6.376;-10.782;2023-06-26T13:32:20;28.05;;;7.25;;
56297;SDS011;42208;6.376;-10.782;2023-06-26T13:34:49;26.40;;;6.15;;
56297;SDS011;42208;6.376;-10.782;2023-06-26T13:37:17;19.58;;;5.47;;
56297;SDS011;42208;6.376;-10.782;2023-06-26T13:39:46;27.40;;;7.75;;
56297;SDS011;42208;6.376;-10.782;2023-06-26T13:42:15;32.78;;;8.95;;
56297;SDS011;42208;6.376;-10.782;2023-06-26T13:44:45;23.63;;;8.43;;
56297;SDS011;42208;6.376;-10.782;2023-06-26T13:47:28;22.80;;;4.72;;
56297;SDS011;42208;6.376;-10.782;2023-06-26T13:49:57;24.23;;;6.15;;
56297;SDS011;42208;6.376;-10.782;2023-06-26T13:52:25;27.02;;;6.75;;
56297;SDS011;42208;6.376;-10.782;2023-06-26T13:54:55;25.25;;;6.80;;
56297;SDS011;42208;6.376;-10.782;2023-06-26T13:57:23;25.90;;;8.73;;
56297;SDS011;42208;6.376;-10.782;2023-06-26T13:59:52;32.00;;;7.43;;
56297;SDS011;42208;6.376;-10.782;2023-06-26T14:02:20;24.20;;;6.40;;
56297;SDS011;42208;6.376;-10.782;2023-06-26T14:04:49;19.73;;;4.88;;
56297;SDS011;42208;6.376;-10.782;2023-06-26T14:07:18;28.55;;;6.00;;
56297;SDS011;42208;6.376;-10.782;2023-06-26T14:09:46;22.52;;;6.13;;
56297;SDS011;42208;6.376;-10.782;2023-06-26T14:12:15;22.40;;;6.40;;
56297;SDS011;42208;6.376;-10.782;2023-06-26T14:14:43;28.70;;;7.28;;
56297;SDS011;42208;6.376;-10.782;2023-06-26T14:17:11;31.13;;;8.02;;
56297;SDS011;42208;6.376;-10.782;2023-06-26T14:19:41;24.25;;;6.60;;
56297;SDS011;42208;6.376;-10.782;2023-06-26T14:22:10;36.42;;;12.15;;
56297;SDS011;42208;6.376;-10.782;2023-06-26T14:24:42;28.08;;;8.77;;
56297;SDS011;42208;6.376;-10.782;2023-06-26T14:27:10;29.17;;;8.30;;
56297;SDS011;42208;6.376;-10.782;2023-06-26T14:29:41;25.80;;;8.52;;
56297;SDS011;42208;6.376;-10.782;2023-06-26T14:32:10;24.05;;;6.07;;
56297;SDS011;42208;6.376;-10.782;2023-06-26T14:34:39;27.17;;;5.88;;
56297;SDS011;42208;6.376;-10.782;2023-06-26T14:37:07;35.78;;;8.50;;
56297;SDS011;42208;6.376;-10.782;2023-06-26T14:39:36;27.67;;;9.52;;
56297;SDS011;42208;6.376;-10.782;2023-06-26T14:42:05;25.00;;;7.05;;
56297;SDS011;42208;6.376;-10.782;2023-06-26T14:44:35;59.78;;;24.25;;
56297;SDS011;42208;6.376;-10.782;2023-06-26T14:47:04;34.65;;;10.45;;
56297;SDS011;42208;6.376;-10.782;2023-06-26T14:49:33;21.13;;;5.75;;
56297;SDS011;42208;6.376;-10.782;2023-06-26T14:52:02;36.20;;;11.48;;